KPIT/PIT METAR and TAF weather

Enter ICAO airport designator
Station Type Date Time Source
KPIT METAR 2020/07/04 00:51 UTC NOAA

KPIT 040051Z 32007KT 10SM FEW055 SCT250 29/17 A2995 RMK AO2 SLP138 T02890167


Station Type Date Time Source
KPIT Decoded METAR 2020/07/04 00:51 UTC NOAA

GREATER PITTSBURGH INTERNATIONAL , PA, United States (KPIT) 40-29N 80-14W 357M
Jul 03, 2020 - 08:51 PM EDT / 2020.07.04 0051 UTC
Wind: from the NW (320 degrees) at 8 MPH (7 KT):0
Visibility: 10 mile(s):0
Sky conditions: partly cloudy
Temperature: 84.0 F (28.9 C)
Dew Point: 62.1 F (16.7 C)
Relative Humidity: 47%
Pressure (altimeter): 29.95 in. Hg (1014 hPa)
ob: KPIT 040051Z 32007KT 10SM FEW055 SCT250 29/17 A2995 RMK AO2 SLP138 T02890167
cycle: 1

Station Type Date Time Source
KPIT TAF 2020/07/03 21:58 UTC NOAA

TAF
AMD KPIT 032056Z 0321/0424 32008KT P6SM SCT060

Example: see airport list